sensor_id;sensor_type;location;lat;lon;timestamp;P1;P2;P0
79537;PMS5003;68989;52.032;5.152;2023-06-22T00:01:25;7;7;
79537;PMS5003;68989;52.032;5.152;2023-06-22T00:03:52;5;5;
79537;PMS5003;68989;52.032;5.152;2023-06-22T00:06:19;6;6;
79537;PMS5003;68989;52.032;5.152;2023-06-22T00:08:46;6;6;
79537;PMS5003;68989;52.032;5.152;2023-06-22T00:11:13;6;4;
79537;PMS5003;68989;52.032;5.152;2023-06-22T00:13:40;6;6;
79537;PMS5003;68989;52.032;5.152;2023-06-22T00:16:08;9;6;
79537;PMS5003;68989;52.032;5.152;2023-06-22T00:18:35;6;6;
79537;PMS5003;68989;52.032;5.152;2023-06-22T00:21:02;10;6;
79537;PMS5003;68989;52.032;5.152;2023-06-22T00:23:30;7;5;
79537;PMS5003;68989;52.032;5.152;2023-06-22T00:25:57;8;8;
79537;PMS5003;68989;52.032;5.152;2023-06-22T00:28:24;8;7;
79537;PMS5003;68989;52.032;5.152;2023-06-22T00:30:51;6;6;
79537;PMS5003;68989;52.032;5.152;2023-06-22T00:33:18;5;5;
79537;PMS5003;68989;52.032;5.152;2023-06-22T00:35:45;8;8;
79537;PMS5003;68989;52.032;5.152;2023-06-22T00:38:12;7;7;
79537;PMS5003;68989;52.032;5.152;2023-06-22T00:40:39;7;7;
79537;PMS5003;68989;52.032;5.152;2023-06-22T00:43:05;6;6;
79537;PMS5003;68989;52.032;5.152;2023-06-22T00:45:32;9;8;
79537;PMS5003;68989;52.032;5.152;2023-06-22T00:48:00;6;6;
79537;PMS5003;68989;52.032;5.152;2023-06-22T00:50:28;7;7;
79537;PMS5003;68989;52.032;5.152;2023-06-22T00:52:58;8;6;
79537;PMS5003;68989;52.032;5.152;2023-06-22T00:55:26;5;5;
79537;PMS5003;68989;52.032;5.152;2023-06-22T00:57:54;7;7;
79537;PMS5003;68989;52.032;5.152;2023-06-22T01:01:21;7;7;
79537;PMS5003;68989;52.032;5.152;2023-06-22T01:03:49;9;9;
79537;PMS5003;68989;52.032;5.152;2023-06-22T01:06:18;7;7;
79537;PMS5003;68989;52.032;5.152;2023-06-22T01:08:53;8;8;
79537;PMS5003;68989;52.032;5.152;2023-06-22T01:11:28;7;7;
79537;PMS5003;68989;52.032;5.152;2023-06-22T01:14:04;6;6;
79537;PMS5003;68989;52.032;5.152;2023-06-22T01:16:38;5;5;
79537;PMS5003;68989;52.032;5.152;2023-06-22T01:19:10;7;7;
79537;PMS5003;68989;52.032;5.152;2023-06-22T01:21:54;13;13;
79537;PMS5003;68989;52.032;5.152;2023-06-22T01:24:24;10;9;
79537;PMS5003;68989;52.032;5.152;2023-06-22T01:26:59;9;7;
79537;PMS5003;68989;52.032;5.152;2023-06-22T01:29:36;9;9;
79537;PMS5003;68989;52.032;5.152;2023-06-22T01:32:04;10;8;
79537;PMS5003;68989;52.032;5.152;2023-06-22T01:34:33;7;7;
79537;PMS5003;68989;52.032;5.152;2023-06-22T01:37:00;8;8;
79537;PMS5003;68989;52.032;5.152;2023-06-22T01:39:30;10;10;
79537;PMS5003;68989;52.032;5.152;2023-06-22T01:41:57;5;5;
79537;PMS5003;68989;52.032;5.152;2023-06-22T01:44:26;10;9;
79537;PMS5003;68989;52.032;5.152;2023-06-22T01:46:53;9;7;
79537;PMS5003;68989;52.032;5.152;2023-06-22T01:49:21;8;8;
79537;PMS5003;68989;52.032;5.152;2023-06-22T01:51:48;9;9;
79537;PMS5003;68989;52.032;5.152;2023-06-22T01:54:15;8;7;
79537;PMS5003;68989;52.032;5.152;2023-06-22T01:56:42;9;9;
79537;PMS5003;68989;52.032;5.152;2023-06-22T01:59:11;9;8;
79537;PMS5003;68989;52.032;5.152;2023-06-22T02:01:47;8;5;
79537;PMS5003;68989;52.032;5.152;2023-06-22T02:04:21;8;8;
79537;PMS5003;68989;52.032;5.152;2023-06-22T02:06:53;8;8;
79537;PMS5003;68989;52.032;5.152;2023-06-22T02:09:25;6;6;
79537;PMS5003;68989;52.032;5.152;2023-06-22T02:11:56;10;9;
79537;PMS5003;68989;52.032;5.152;2023-06-22T02:14:24;9;9;
79537;PMS5003;68989;52.032;5.152;2023-06-22T02:16:52;7;7;
79537;PMS5003;68989;52.032;5.152;2023-06-22T02:19:22;7;7;
79537;PMS5003;68989;52.032;5.152;2023-06-22T02:21:49;8;8;
79537;PMS5003;68989;52.032;5.152;2023-06-22T02:24:17;10;8;
79537;PMS5003;68989;52.032;5.152;2023-06-22T02:26:44;7;7;
79537;PMS5003;68989;52.032;5.152;2023-06-22T02:29:11;7;7;
79537;PMS5003;68989;52.032;5.152;2023-06-22T02:31:39;9;9;
79537;PMS5003;68989;52.032;5.152;2023-06-22T02:34:06;7;6;
79537;PMS5003;68989;52.032;5.152;2023-06-22T02:36:33;10;8;
79537;PMS5003;68989;52.032;5.152;2023-06-22T02:39:00;10;10;
79537;PMS5003;68989;52.032;5.152;2023-06-22T02:41:26;9;9;
79537;PMS5003;68989;52.032;5.152;2023-06-22T02:43:54;12;9;
79537;PMS5003;68989;52.032;5.152;2023-06-22T02:46:21;11;11;
79537;PMS5003;68989;52.032;5.152;2023-06-22T02:48:48;9;9;
79537;PMS5003;68989;52.032;5.152;2023-06-22T02:51:15;8;8;
79537;PMS5003;68989;52.032;5.152;2023-06-22T02:53:42;6;6;
79537;PMS5003;68989;52.032;5.152;2023-06-22T02:56:09;10;9;
79537;PMS5003;68989;52.032;5.152;2023-06-22T02:58:35;11;9;
79537;PMS5003;68989;52.032;5.152;2023-06-22T03:01:02;8;8;
79537;PMS5003;68989;52.032;5.152;2023-06-22T03:03:30;9;9;
79537;PMS5003;68989;52.032;5.152;2023-06-22T03:05:57;10;9;
79537;PMS5003;68989;52.032;5.152;2023-06-22T03:08:24;8;8;
79537;PMS5003;68989;52.032;5.152;2023-06-22T03:10:51;10;7;
79537;PMS5003;68989;52.032;5.152;2023-06-22T03:13:18;7;7;
79537;PMS5003;68989;52.032;5.152;2023-06-22T03:15:45;8;8;
79537;PMS5003;68989;52.032;5.152;2023-06-22T03:18:11;10;8;
79537;PMS5003;68989;52.032;5.152;2023-06-22T03:20:38;11;9;
79537;PMS5003;68989;52.032;5.152;2023-06-22T03:23:05;11;11;
79537;PMS5003;68989;52.032;5.152;2023-06-22T03:25:32;9;9;
79537;PMS5003;68989;52.032;5.152;2023-06-22T03:27:59;8;8;
79537;PMS5003;68989;52.032;5.152;2023-06-22T03:30:26;8;7;
79537;PMS5003;68989;52.032;5.152;2023-06-22T03:32:53;8;8;
79537;PMS5003;68989;52.032;5.152;2023-06-22T03:35:20;10;8;
79537;PMS5003;68989;52.032;5.152;2023-06-22T03:37:46;8;8;
79537;PMS5003;68989;52.032;5.152;2023-06-22T03:40:13;9;9;
79537;PMS5003;68989;52.032;5.152;2023-06-22T03:42:40;9;7;
79537;PMS5003;68989;52.032;5.152;2023-06-22T03:45:07;7;7;
79537;PMS5003;68989;52.032;5.152;2023-06-22T03:47:35;9;9;
79537;PMS5003;68989;52.032;5.152;2023-06-22T03:50:02;12;10;
79537;PMS5003;68989;52.032;5.152;2023-06-22T03:52:29;8;8;
79537;PMS5003;68989;52.032;5.152;2023-06-22T03:54:56;9;9;
79537;PMS5003;68989;52.032;5.152;2023-06-22T03:57:23;9;8;
79537;PMS5003;68989;52.032;5.152;2023-06-22T03:59:50;7;7;
79537;PMS5003;68989;52.032;5.152;2023-06-22T04:02:16;10;10;
79537;PMS5003;68989;52.032;5.152;2023-06-22T04:04:43;8;8;
79537;PMS5003;68989;52.032;5.152;2023-06-22T04:07:10;9;9;
79537;PMS5003;68989;52.032;5.152;2023-06-22T04:09:37;11;11;
79537;PMS5003;68989;52.032;5.152;2023-06-22T04:12:04;10;10;
79537;PMS5003;68989;52.032;5.152;2023-06-22T04:14:32;8;8;
79537;PMS5003;68989;52.032;5.152;2023-06-22T04:16:58;10;10;
79537;PMS5003;68989;52.032;5.152;2023-06-22T04:19:25;11;9;
79537;PMS5003;68989;52.032;5.152;2023-06-22T04:21:52;8;8;
79537;PMS5003;68989;52.032;5.152;2023-06-22T04:24:19;11;9;
79537;PMS5003;68989;52.032;5.152;2023-06-22T04:26:45;7;7;
79537;PMS5003;68989;52.032;5.152;2023-06-22T04:29:12;9;9;
79537;PMS5003;68989;52.032;5.152;2023-06-22T04:31:39;9;9;
79537;PMS5003;68989;52.032;5.152;2023-06-22T04:34:07;10;10;
79537;PMS5003;68989;52.032;5.152;2023-06-22T04:36:34;13;10;
79537;PMS5003;68989;52.032;5.152;2023-06-22T04:39:03;15;11;
79537;PMS5003;68989;52.032;5.152;2023-06-22T04:41:30;9;9;
79537;PMS5003;68989;52.032;5.152;2023-06-22T04:43:57;10;10;
79537;PMS5003;68989;52.032;5.152;2023-06-22T04:46:24;13;12;
79537;PMS5003;68989;52.032;5.152;2023-06-22T04:48:51;18;16;
79537;PMS5003;68989;52.032;5.152;2023-06-22T04:51:18;13;13;
79537;PMS5003;68989;52.032;5.152;2023-06-22T04:53:45;7;7;
79537;PMS5003;68989;52.032;5.152;2023-06-22T04:56:12;9;9;
79537;PMS5003;68989;52.032;5.152;2023-06-22T04:58:39;13;10;
79537;PMS5003;68989;52.032;5.152;2023-06-22T05:01:06;15;12;
79537;PMS5003;68989;52.032;5.152;2023-06-22T05:03:34;12;11;
79537;PMS5003;68989;52.032;5.152;2023-06-22T05:06:00;11;11;
79537;PMS5003;68989;52.032;5.152;2023-06-22T05:08:28;13;12;
79537;PMS5003;68989;52.032;5.152;2023-06-22T05:10:55;14;12;
79537;PMS5003;68989;52.032;5.152;2023-06-22T05:13:22;15;14;
79537;PMS5003;68989;52.032;5.152;2023-06-22T05:15:49;15;15;
79537;PMS5003;68989;52.032;5.152;2023-06-22T05:18:17;18;15;
79537;PMS5003;68989;52.032;5.152;2023-06-22T05:20:45;13;13;
79537;PMS5003;68989;52.032;5.152;2023-06-22T05:23:12;14;13;
79537;PMS5003;68989;52.032;5.152;2023-06-22T05:25:39;17;15;
79537;PMS5003;68989;52.032;5.152;2023-06-22T05:28:07;19;19;
79537;PMS5003;68989;52.032;5.152;2023-06-22T05:30:34;10;10;
79537;PMS5003;68989;52.032;5.152;2023-06-22T05:33:01;10;10;
79537;PMS5003;68989;52.032;5.152;2023-06-22T05:35:28;13;13;
79537;PMS5003;68989;52.032;5.152;2023-06-22T05:37:56;14;14;
79537;PMS5003;68989;52.032;5.152;2023-06-22T05:40:22;16;14;
79537;PMS5003;68989;52.032;5.152;2023-06-22T05:42:49;19;19;
79537;PMS5003;68989;52.032;5.152;2023-06-22T05:45:16;16;13;
79537;PMS5003;68989;52.032;5.152;2023-06-22T05:47:43;14;14;
79537;PMS5003;68989;52.032;5.152;2023-06-22T05:50:10;21;21;
79537;PMS5003;68989;52.032;5.152;2023-06-22T05:52:38;18;18;
79537;PMS5003;68989;52.032;5.152;2023-06-22T05:55:05;16;16;
79537;PMS5003;68989;52.032;5.152;2023-06-22T05:57:33;24;22;
79537;PMS5003;68989;52.032;5.152;2023-06-22T06:00:00;16;16;
79537;PMS5003;68989;52.032;5.152;2023-06-22T06:02:27;16;15;
79537;PMS5003;68989;52.032;5.152;2023-06-22T06:04:54;16;14;
79537;PMS5003;68989;52.032;5.152;2023-06-22T06:07:21;22;19;
79537;PMS5003;68989;52.032;5.152;2023-06-22T06:09:48;12;12;
79537;PMS5003;68989;52.032;5.152;2023-06-22T06:12:15;15;15;
79537;PMS5003;68989;52.032;5.152;2023-06-22T06:14:43;16;14;
79537;PMS5003;68989;52.032;5.152;2023-06-22T06:17:09;10;10;
79537;PMS5003;68989;52.032;5.152;2023-06-22T06:19:36;13;11;
79537;PMS5003;68989;52.032;5.152;2023-06-22T06:22:03;13;13;
79537;PMS5003;68989;52.032;5.152;2023-06-22T06:24:30;15;15;
79537;PMS5003;68989;52.032;5.152;2023-06-22T06:26:57;18;18;
79537;PMS5003;68989;52.032;5.152;2023-06-22T06:29:25;19;17;
79537;PMS5003;68989;52.032;5.152;2023-06-22T06:31:51;28;28;
79537;PMS5003;68989;52.032;5.152;2023-06-22T06:34:18;31;31;
79537;PMS5003;68989;52.032;5.152;2023-06-22T06:36:45;30;28;
79537;PMS5003;68989;52.032;5.152;2023-06-22T06:39:12;29;27;
79537;PMS5003;68989;52.032;5.152;2023-06-22T06:41:39;26;26;
79537;PMS5003;68989;52.032;5.152;2023-06-22T06:44:06;15;15;
79537;PMS5003;68989;52.032;5.152;2023-06-22T06:46:34;19;19;
79537;PMS5003;68989;52.032;5.152;2023-06-22T06:49:01;16;16;
79537;PMS5003;68989;52.032;5.152;2023-06-22T06:51:28;16;16;
79537;PMS5003;68989;52.032;5.152;2023-06-22T06:53:55;13;13;
79537;PMS5003;68989;52.032;5.152;2023-06-22T06:56:22;24;23;
79537;PMS5003;68989;52.032;5.152;2023-06-22T06:58:49;34;31;
79537;PMS5003;68989;52.032;5.152;2023-06-22T07:01:17;31;28;
79537;PMS5003;68989;52.032;5.152;2023-06-22T07:03:44;26;24;
79537;PMS5003;68989;52.032;5.152;2023-06-22T07:06:12;18;18;
79537;PMS5003;68989;52.032;5.152;2023-06-22T07:08:40;32;32;
79537;PMS5003;68989;52.032;5.152;2023-06-22T07:11:07;33;33;
79537;PMS5003;68989;52.032;5.152;2023-06-22T07:13:34;29;26;
79537;PMS5003;68989;52.032;5.152;2023-06-22T07:16:01;20;19;
79537;PMS5003;68989;52.032;5.152;2023-06-22T07:18:29;19;18;
79537;PMS5003;68989;52.032;5.152;2023-06-22T07:20:56;27;26;
79537;PMS5003;68989;52.032;5.152;2023-06-22T07:23:24;15;15;
79537;PMS5003;68989;52.032;5.152;2023-06-22T07:25:51;21;21;
79537;PMS5003;68989;52.032;5.152;2023-06-22T07:28:18;20;20;
79537;PMS5003;68989;52.032;5.152;2023-06-22T07:30:45;20;18;
79537;PMS5003;68989;52.032;5.152;2023-06-22T07:33:13;15;15;
79537;PMS5003;68989;52.032;5.152;2023-06-22T07:35:40;21;19;
79537;PMS5003;68989;52.032;5.152;2023-06-22T07:38:08;19;19;
79537;PMS5003;68989;52.032;5.152;2023-06-22T07:40:35;21;20;
79537;PMS5003;68989;52.032;5.152;2023-06-22T07:43:03;18;18;
79537;PMS5003;68989;52.032;5.152;2023-06-22T07:45:30;22;19;
79537;PMS5003;68989;52.032;5.152;2023-06-22T07:47:57;18;18;
79537;PMS5003;68989;52.032;5.152;2023-06-22T07:50:24;20;19;
79537;PMS5003;68989;52.032;5.152;2023-06-22T07:52:51;11;11;
79537;PMS5003;68989;52.032;5.152;2023-06-22T07:55:18;20;19;
79537;PMS5003;68989;52.032;5.152;2023-06-22T07:57:46;17;17;
79537;PMS5003;68989;52.032;5.152;2023-06-22T08:00:16;17;17;
79537;PMS5003;68989;52.032;5.152;2023-06-22T08:02:44;17;17;
79537;PMS5003;68989;52.032;5.152;2023-06-22T08:05:13;18;18;
79537;PMS5003;68989;52.032;5.152;2023-06-22T08:07:41;22;22;
79537;PMS5003;68989;52.032;5.152;2023-06-22T08:10:10;21;19;
79537;PMS5003;68989;52.032;5.152;2023-06-22T08:12:38;22;21;
79537;PMS5003;68989;52.032;5.152;2023-06-22T08:15:06;21;21;
79537;PMS5003;68989;52.032;5.152;2023-06-22T08:17:36;14;14;
79537;PMS5003;68989;52.032;5.152;2023-06-22T08:20:04;22;21;
79537;PMS5003;68989;52.032;5.152;2023-06-22T08:22:32;21;20;
79537;PMS5003;68989;52.032;5.152;2023-06-22T08:24:59;19;18;
79537;PMS5003;68989;52.032;5.152;2023-06-22T08:27:26;17;17;
79537;PMS5003;68989;52.032;5.152;2023-06-22T08:29:54;13;13;
79537;PMS5003;68989;52.032;5.152;2023-06-22T08:32:21;13;13;
79537;PMS5003;68989;52.032;5.152;2023-06-22T08:34:48;12;12;
79537;PMS5003;68989;52.032;5.152;2023-06-22T08:37:15;12;12;
79537;PMS5003;68989;52.032;5.152;2023-06-22T08:39:42;15;14;
79537;PMS5003;68989;52.032;5.152;2023-06-22T08:42:09;14;13;
79537;PMS5003;68989;52.032;5.152;2023-06-22T08:44:39;12;12;
79537;PMS5003;68989;52.032;5.152;2023-06-22T08:47:07;10;10;
79537;PMS5003;68989;52.032;5.152;2023-06-22T08:49:35;12;11;
79537;PMS5003;68989;52.032;5.152;2023-06-22T08:52:04;14;14;
79537;PMS5003;68989;52.032;5.152;2023-06-22T08:54:32;9;9;
79537;PMS5003;68989;52.032;5.152;2023-06-22T08:57:00;13;13;
79537;PMS5003;68989;52.032;5.152;2023-06-22T08:59:26;11;8;
79537;PMS5003;68989;52.032;5.152;2023-06-22T09:01:54;13;11;
79537;PMS5003;68989;52.032;5.152;2023-06-22T09:04:21;12;11;
79537;PMS5003;68989;52.032;5.152;2023-06-22T09:06:49;11;11;
79537;PMS5003;68989;52.032;5.152;2023-06-22T09:09:17;13;11;
79537;PMS5003;68989;52.032;5.152;2023-06-22T09:11:45;10;10;
79537;PMS5003;68989;52.032;5.152;2023-06-22T09:14:13;10;10;
79537;PMS5003;68989;52.032;5.152;2023-06-22T09:16:41;13;13;
79537;PMS5003;68989;52.032;5.152;2023-06-22T09:19:08;13;13;
79537;PMS5003;68989;52.032;5.152;2023-06-22T09:21:35;14;14;
79537;PMS5003;68989;52.032;5.152;2023-06-22T09:24:03;14;14;
79537;PMS5003;68989;52.032;5.152;2023-06-22T09:26:30;12;12;
79537;PMS5003;68989;52.032;5.152;2023-06-22T09:28:57;12;12;
79537;PMS5003;68989;52.032;5.152;2023-06-22T09:31:24;16;14;
79537;PMS5003;68989;52.032;5.152;2023-06-22T09:33:51;14;14;
79537;PMS5003;68989;52.032;5.152;2023-06-22T09:36:19;14;14;
79537;PMS5003;68989;52.032;5.152;2023-06-22T09:38:47;15;14;
79537;PMS5003;68989;52.032;5.152;2023-06-22T09:41:14;14;14;
79537;PMS5003;68989;52.032;5.152;2023-06-22T09:43:42;11;11;
79537;PMS5003;68989;52.032;5.152;2023-06-22T09:46:10;13;13;
79537;PMS5003;68989;52.032;5.152;2023-06-22T09:48:37;11;11;
79537;PMS5003;68989;52.032;5.152;2023-06-22T09:51:03;13;13;
79537;PMS5003;68989;52.032;5.152;2023-06-22T09:53:31;15;15;
79537;PMS5003;68989;52.032;5.152;2023-06-22T09:55:58;13;13;
79537;PMS5003;68989;52.032;5.152;2023-06-22T09:58:26;12;12;
79537;PMS5003;68989;52.032;5.152;2023-06-22T10:00:53;9;9;
79537;PMS5003;68989;52.032;5.152;2023-06-22T10:03:20;14;13;
79537;PMS5003;68989;52.032;5.152;2023-06-22T10:05:47;12;12;
79537;PMS5003;68989;52.032;5.152;2023-06-22T10:08:15;12;12;
79537;PMS5003;68989;52.032;5.152;2023-06-22T10:10:42;14;13;
79537;PMS5003;68989;52.032;5.152;2023-06-22T10:13:09;13;12;
79537;PMS5003;68989;52.032;5.152;2023-06-22T10:15:37;11;9;
79537;PMS5003;68989;52.032;5.152;2023-06-22T10:18:04;14;14;
79537;PMS5003;68989;52.032;5.152;2023-06-22T10:20:31;11;10;
79537;PMS5003;68989;52.032;5.152;2023-06-22T10:22:58;14;14;
79537;PMS5003;68989;52.032;5.152;2023-06-22T10:25:26;11;11;
79537;PMS5003;68989;52.032;5.152;2023-06-22T10:27:53;11;10;
79537;PMS5003;68989;52.032;5.152;2023-06-22T10:30:20;14;14;
79537;PMS5003;68989;52.032;5.152;2023-06-22T10:32:47;9;9;
79537;PMS5003;68989;52.032;5.152;2023-06-22T10:35:14;10;10;
79537;PMS5003;68989;52.032;5.152;2023-06-22T10:37:42;11;11;
79537;PMS5003;68989;52.032;5.152;2023-06-22T10:40:11;9;9;
79537;PMS5003;68989;52.032;5.152;2023-06-22T10:42:38;9;9;
79537;PMS5003;68989;52.032;5.152;2023-06-22T10:45:06;12;11;
79537;PMS5003;68989;52.032;5.152;2023-06-22T10:47:34;12;10;
79537;PMS5003;68989;52.032;5.152;2023-06-22T10:50:01;10;10;
79537;PMS5003;68989;52.032;5.152;2023-06-22T10:52:28;7;7;
79537;PMS5003;68989;52.032;5.152;2023-06-22T10:54:56;12;12;
79537;PMS5003;68989;52.032;5.152;2023-06-22T10:57:23;10;10;
79537;PMS5003;68989;52.032;5.152;2023-06-22T10:59:50;13;12;
79537;PMS5003;68989;52.032;5.152;2023-06-22T11:02:18;13;13;
79537;PMS5003;68989;52.032;5.152;2023-06-22T11:04:45;11;11;
79537;PMS5003;68989;52.032;5.152;2023-06-22T11:07:13;12;12;
79537;PMS5003;68989;52.032;5.152;2023-06-22T11:09:42;14;14;
79537;PMS5003;68989;52.032;5.152;2023-06-22T11:12:09;13;13;
79537;PMS5003;68989;52.032;5.152;2023-06-22T11:14:36;12;11;
79537;PMS5003;68989;52.032;5.152;2023-06-22T11:17:03;15;14;
79537;PMS5003;68989;52.032;5.152;2023-06-22T11:19:30;12;12;
79537;PMS5003;68989;52.032;5.152;2023-06-22T11:21:58;12;12;
79537;PMS5003;68989;52.032;5.152;2023-06-22T11:24:25;11;11;
79537;PMS5003;68989;52.032;5.152;2023-06-22T11:26:52;15;15;
79537;PMS5003;68989;52.032;5.152;2023-06-22T11:29:20;16;13;
79537;PMS5003;68989;52.032;5.152;2023-06-22T11:31:47;13;13;
79537;PMS5003;68989;52.032;5.152;2023-06-22T11:34:14;11;11;
79537;PMS5003;68989;52.032;5.152;2023-06-22T11:36:42;15;14;
79537;PMS5003;68989;52.032;5.152;2023-06-22T11:39:09;13;13;
79537;PMS5003;68989;52.032;5.152;2023-06-22T11:41:36;11;9;
79537;PMS5003;68989;52.032;5.152;2023-06-22T11:44:04;13;13;
79537;PMS5003;68989;52.032;5.152;2023-06-22T11:46:32;17;17;
79537;PMS5003;68989;52.032;5.152;2023-06-22T11:48:59;17;17;
79537;PMS5003;68989;52.032;5.152;2023-06-22T11:51:26;18;18;
79537;PMS5003;68989;52.032;5.152;2023-06-22T11:53:53;20;20;
79537;PMS5003;68989;52.032;5.152;2023-06-22T11:56:20;16;14;
79537;PMS5003;68989;52.032;5.152;2023-06-22T11:58:47;17;17;
79537;PMS5003;68989;52.032;5.152;2023-06-22T12:01:13;16;16;
79537;PMS5003;68989;52.032;5.152;2023-06-22T12:03:40;16;16;
79537;PMS5003;68989;52.032;5.152;2023-06-22T12:06:08;16;16;
79537;PMS5003;68989;52.032;5.152;2023-06-22T12:08:35;14;14;
79537;PMS5003;68989;52.032;5.152;2023-06-22T12:11:03;17;16;
79537;PMS5003;68989;52.032;5.152;2023-06-22T12:13:30;19;19;
79537;PMS5003;68989;52.032;5.152;2023-06-22T12:15:57;13;13;
79537;PMS5003;68989;52.032;5.152;2023-06-22T12:18:25;12;12;
79537;PMS5003;68989;52.032;5.152;2023-06-22T12:20:52;15;15;
79537;PMS5003;68989;52.032;5.152;2023-06-22T12:23:19;20;18;
79537;PMS5003;68989;52.032;5.152;2023-06-22T12:25:45;15;13;
79537;PMS5003;68989;52.032;5.152;2023-06-22T12:28:13;16;16;
79537;PMS5003;68989;52.032;5.152;2023-06-22T12:30:40;18;18;
79537;PMS5003;68989;52.032;5.152;2023-06-22T12:33:07;14;14;
79537;PMS5003;68989;52.032;5.152;2023-06-22T12:35:34;16;15;
79537;PMS5003;68989;52.032;5.152;2023-06-22T12:38:01;15;12;
79537;PMS5003;68989;52.032;5.152;2023-06-22T12:40:28;15;15;
79537;PMS5003;68989;52.032;5.152;2023-06-22T12:42:56;13;13;
79537;PMS5003;68989;52.032;5.152;2023-06-22T12:45:23;15;13;
79537;PMS5003;68989;52.032;5.152;2023-06-22T12:47:50;13;13;
79537;PMS5003;68989;52.032;5.152;2023-06-22T12:50:17;20;20;
79537;PMS5003;68989;52.032;5.152;2023-06-22T12:52:44;14;12;
79537;PMS5003;68989;52.032;5.152;2023-06-22T12:55:11;16;16;
79537;PMS5003;68989;52.032;5.152;2023-06-22T12:57:37;16;16;
79537;PMS5003;68989;52.032;5.152;2023-06-22T13:00:05;15;14;
79537;PMS5003;68989;52.032;5.152;2023-06-22T13:02:33;22;18;
79537;PMS5003;68989;52.032;5.152;2023-06-22T13:05:01;18;18;
79537;PMS5003;68989;52.032;5.152;2023-06-22T13:07:28;15;15;
79537;PMS5003;68989;52.032;5.152;2023-06-22T13:09:56;16;16;
79537;PMS5003;68989;52.032;5.152;2023-06-22T13:12:24;16;15;
79537;PMS5003;68989;52.032;5.152;2023-06-22T13:14:51;17;16;
79537;PMS5003;68989;52.032;5.152;2023-06-22T13:17:19;16;16;
79537;PMS5003;68989;52.032;5.152;2023-06-22T13:19:46;18;18;
79537;PMS5003;68989;52.032;5.152;2023-06-22T13:22:29;16;16;
79537;PMS5003;68989;52.032;5.152;2023-06-22T13:24:59;12;12;
79537;PMS5003;68989;52.032;5.152;2023-06-22T13:27:27;14;14;
79537;PMS5003;68989;52.032;5.152;2023-06-22T13:29:55;16;15;
79537;PMS5003;68989;52.032;5.152;2023-06-22T13:32:21;14;14;
79537;PMS5003;68989;52.032;5.152;2023-06-22T13:34:48;17;17;
79537;PMS5003;68989;52.032;5.152;2023-06-22T13:37:15;14;14;
79537;PMS5003;68989;52.032;5.152;2023-06-22T13:39:42;19;19;
79537;PMS5003;68989;52.032;5.152;2023-06-22T13:42:08;14;14;
79537;PMS5003;68989;52.032;5.152;2023-06-22T13:44:35;15;14;
79537;PMS5003;68989;52.032;5.152;2023-06-22T13:47:02;18;17;
79537;PMS5003;68989;52.032;5.152;2023-06-22T13:49:29;14;13;
79537;PMS5003;68989;52.032;5.152;2023-06-22T13:51:57;17;15;
79537;PMS5003;68989;52.032;5.152;2023-06-22T13:54:23;18;18;
79537;PMS5003;68989;52.032;5.152;2023-06-22T13:56:50;16;15;
79537;PMS5003;68989;52.032;5.152;2023-06-22T13:59:17;20;18;
79537;PMS5003;68989;52.032;5.152;2023-06-22T14:01:44;21;20;
79537;PMS5003;68989;52.032;5.152;2023-06-22T14:04:11;20;19;
79537;PMS5003;68989;52.032;5.152;2023-06-22T14:06:38;16;16;
79537;PMS5003;68989;52.032;5.152;2023-06-22T14:09:06;18;18;
79537;PMS5003;68989;52.032;5.152;2023-06-22T14:11:33;17;15;
79537;PMS5003;68989;52.032;5.152;2023-06-22T14:13:59;18;16;
79537;PMS5003;68989;52.032;5.152;2023-06-22T14:16:26;27;27;
79537;PMS5003;68989;52.032;5.152;2023-06-22T14:18:54;26;21;
79537;PMS5003;68989;52.032;5.152;2023-06-22T14:21:21;22;21;
79537;PMS5003;68989;52.032;5.152;2023-06-22T14:23:48;17;17;
79537;PMS5003;68989;52.032;5.152;2023-06-22T14:26:15;19;17;
79537;PMS5003;68989;52.032;5.152;2023-06-22T14:28:43;22;21;
79537;PMS5003;68989;52.032;5.152;2023-06-22T14:31:11;20;20;
79537;PMS5003;68989;52.032;5.152;2023-06-22T14:33:38;19;17;
79537;PMS5003;68989;52.032;5.152;2023-06-22T14:36:05;20;19;
79537;PMS5003;68989;52.032;5.152;2023-06-22T14:38:33;18;17;
79537;PMS5003;68989;52.032;5.152;2023-06-22T14:41:00;19;19;
79537;PMS5003;68989;52.032;5.152;2023-06-22T14:43:27;17;17;
79537;PMS5003;68989;52.032;5.152;2023-06-22T14:45:55;23;23;
79537;PMS5003;68989;52.032;5.152;2023-06-22T14:48:22;17;17;
79537;PMS5003;68989;52.032;5.152;2023-06-22T14:50:49;25;22;
79537;PMS5003;68989;52.032;5.152;2023-06-22T14:53:16;16;16;
79537;PMS5003;68989;52.032;5.152;2023-06-22T14:55:43;20;17;
79537;PMS5003;68989;52.032;5.152;2023-06-22T14:58:10;14;14;
79537;PMS5003;68989;52.032;5.152;2023-06-22T15:00:37;22;18;
79537;PMS5003;68989;52.032;5.152;2023-06-22T15:03:04;14;14;
79537;PMS5003;68989;52.032;5.152;2023-06-22T15:05:32;17;17;
79537;PMS5003;68989;52.032;5.152;2023-06-22T15:07:58;17;17;
79537;PMS5003;68989;52.032;5.152;2023-06-22T15:10:25;21;21;
79537;PMS5003;68989;52.032;5.152;2023-06-22T15:12:53;15;15;
79537;PMS5003;68989;52.032;5.152;2023-06-22T15:15:20;18;18;
79537;PMS5003;68989;52.032;5.152;2023-06-22T15:17:48;22;22;
79537;PMS5003;68989;52.032;5.152;2023-06-22T15:20:15;20;18;
79537;PMS5003;68989;52.032;5.152;2023-06-22T15:22:43;18;15;
79537;PMS5003;68989;52.032;5.152;2023-06-22T15:25:10;14;14;
79537;PMS5003;68989;52.032;5.152;2023-06-22T15:27:37;18;17;
79537;PMS5003;68989;52.032;5.152;2023-06-22T15:30:05;16;16;
79537;PMS5003;68989;52.032;5.152;2023-06-22T15:32:33;19;19;
79537;PMS5003;68989;52.032;5.152;2023-06-22T15:35:00;19;19;
79537;PMS5003;68989;52.032;5.152;2023-06-22T15:37:28;17;15;
79537;PMS5003;68989;52.032;5.152;2023-06-22T15:39:55;25;23;
79537;PMS5003;68989;52.032;5.152;2023-06-22T15:42:22;16;16;
79537;PMS5003;68989;52.032;5.152;2023-06-22T15:44:49;19;19;
79537;PMS5003;68989;52.032;5.152;2023-06-22T15:47:16;16;16;
79537;PMS5003;68989;52.032;5.152;2023-06-22T15:49:43;20;17;
79537;PMS5003;68989;52.032;5.152;2023-06-22T15:52:09;17;16;
79537;PMS5003;68989;52.032;5.152;2023-06-22T15:54:36;17;16;
79537;PMS5003;68989;52.032;5.152;2023-06-22T15:57:04;18;17;
79537;PMS5003;68989;52.032;5.152;2023-06-22T15:59:31;17;15;
79537;PMS5003;68989;52.032;5.152;2023-06-22T16:01:59;19;19;
79537;PMS5003;68989;52.032;5.152;2023-06-22T16:04:25;12;12;
79537;PMS5003;68989;52.032;5.152;2023-06-22T16:06:52;17;17;
79537;PMS5003;68989;52.032;5.152;2023-06-22T16:09:19;14;14;
79537;PMS5003;68989;52.032;5.152;2023-06-22T16:11:46;16;15;
79537;PMS5003;68989;52.032;5.152;2023-06-22T16:14:13;14;14;
79537;PMS5003;68989;52.032;5.152;2023-06-22T16:16:40;17;15;
79537;PMS5003;68989;52.032;5.152;2023-06-22T16:19:07;18;16;
79537;PMS5003;68989;52.032;5.152;2023-06-22T16:21:34;22;20;
79537;PMS5003;68989;52.032;5.152;2023-06-22T16:24:01;16;16;
79537;PMS5003;68989;52.032;5.152;2023-06-22T16:26:36;15;13;
79537;PMS5003;68989;52.032;5.152;2023-06-22T16:29:04;15;15;